createdAt,value
2023-05-04T00:03:11.090Z,99.90
2023-05-04T00:08:12.878Z,99.90
2023-05-04T00:13:14.712Z,99.90
2023-05-04T00:18:16.737Z,99.90
2023-05-04T00:23:18.752Z,99.90
2023-05-04T00:28:20.669Z,99.90
2023-05-04T00:33:22.521Z,99.90
2023-05-04T00:38:24.351Z,99.90
2023-05-04T00:43:26.792Z,99.90
2023-05-04T00:48:28.638Z,99.90
2023-05-04T00:53:30.890Z,99.90
2023-05-04T00:58:33.459Z,99.90
2023-05-04T01:03:35.424Z,99.90
2023-05-04T01:08:44.970Z,99.90
2023-05-04T01:13:48.233Z,99.90
2023-05-04T01:18:50.105Z,99.90
2023-05-04T01:23:51.951Z,99.90
2023-05-04T01:29:21.049Z,99.90
2023-05-04T01:34:23.347Z,99.90
2023-05-04T01:39:25.173Z,99.90
2023-05-04T01:44:27.010Z,99.90
2023-05-04T01:49:28.874Z,99.90
2023-05-04T01:54:30.772Z,99.90
2023-05-04T01:59:32.784Z,99.90
2023-05-04T02:04:35.561Z,99.90
2023-05-04T02:09:37.394Z,99.90
2023-05-04T02:14:39.474Z,99.90
2023-05-04T02:19:41.239Z,99.90
2023-05-04T02:24:44.320Z,99.90
2023-05-04T02:29:46.162Z,99.90
2023-05-04T02:34:47.905Z,99.90
2023-05-04T02:39:49.696Z,99.90
2023-05-04T02:44:51.555Z,99.90
2023-05-04T02:49:53.506Z,99.90
2023-05-04T02:54:55.340Z,99.90
2023-05-04T02:59:57.216Z,99.90
2023-05-04T03:04:59.111Z,99.90
2023-05-04T03:10:01.908Z,99.90
2023-05-04T03:15:04.127Z,99.90
2023-05-04T03:20:07.236Z,99.90
2023-05-04T03:25:09.709Z,99.90
2023-05-04T03:30:12.396Z,99.90
2023-05-04T03:35:14.619Z,99.90
2023-05-04T03:40:22.333Z,99.90
2023-05-04T03:45:28.468Z,99.90
2023-05-04T03:50:31.967Z,99.90
2023-05-04T03:55:34.024Z,99.90
2023-05-04T04:00:36.240Z,99.90
2023-05-04T04:05:45.836Z,99.90
2023-05-04T04:10:47.871Z,99.90
2023-05-04T04:15:50.360Z,99.90
2023-05-04T04:20:52.257Z,99.90
2023-05-04T04:25:54.062Z,99.90
2023-05-04T04:30:56.069Z,99.90
2023-05-04T04:35:57.867Z,99.90
2023-05-04T04:40:59.654Z,99.90
2023-05-04T04:46:02.151Z,99.90
2023-05-04T04:51:05.637Z,99.90
2023-05-04T04:56:07.657Z,99.90
2023-05-04T05:01:09.651Z,99.90
2023-05-04T05:06:12.694Z,99.90
2023-05-04T05:11:14.438Z,99.90
2023-05-04T05:16:16.323Z,99.90
2023-05-04T05:21:18.390Z,99.90
2023-05-04T05:26:20.264Z,99.90
2023-05-04T05:31:22.295Z,99.90
2023-05-04T05:36:24.269Z,99.90
2023-05-04T05:41:26.082Z,99.90
2023-05-04T05:46:28.314Z,99.90
2023-05-04T05:51:30.234Z,99.90
2023-05-04T05:56:32.461Z,99.90
2023-05-04T06:01:34.282Z,99.90
2023-05-04T06:06:36.558Z,99.90
2023-05-04T06:11:38.578Z,99.90
2023-05-04T06:16:40.463Z,99.90
2023-05-04T06:21:42.235Z,99.90
2023-05-04T06:26:44.000Z,99.90
2023-05-04T06:31:48.802Z,99.90
2023-05-04T06:36:50.892Z,99.90
2023-05-04T06:41:55.668Z,99.90
2023-05-04T06:46:57.431Z,99.90
2023-05-04T06:51:59.697Z,99.90
2023-05-04T06:57:03.266Z,99.90
2023-05-04T07:02:05.030Z,99.90
2023-05-04T07:07:06.781Z,99.90
2023-05-04T07:12:08.583Z,99.90
2023-05-04T07:17:10.419Z,99.90
2023-05-04T07:22:12.393Z,99.90
2023-05-04T07:27:14.139Z,99.90
2023-05-04T07:32:15.953Z,99.90
2023-05-04T07:37:17.792Z,99.90
2023-05-04T07:42:19.542Z,99.90
2023-05-04T07:47:21.931Z,99.90
2023-05-04T07:52:24.480Z,99.90
2023-05-04T07:57:26.333Z,99.90
2023-05-04T08:02:28.253Z,99.90
2023-05-04T08:07:30.282Z,99.90
2023-05-04T08:12:32.480Z,99.90
2023-05-04T08:17:39.374Z,98.60
2023-05-04T08:22:41.242Z,99.60
2023-05-04T08:27:43.041Z,96.40
2023-05-04T08:32:45.202Z,98.80
2023-05-04T08:37:48.121Z,99.30
2023-05-04T08:42:53.655Z,97.70
2023-05-04T08:47:55.527Z,94.50
2023-05-04T08:53:00.952Z,93.80
2023-05-04T08:58:06.277Z,94.80
2023-05-04T09:03:10.676Z,95.20
2023-05-04T09:08:12.733Z,93.70
2023-05-04T09:13:14.799Z,92.90
2023-05-04T09:18:16.850Z,90.80
2023-05-04T09:23:19.315Z,93.10
2023-05-04T09:28:33.784Z,92.80
2023-05-04T09:33:35.643Z,89.90
2023-05-04T09:38:37.471Z,92.60
2023-05-04T09:43:43.770Z,90.30
2023-05-04T09:48:57.306Z,91.10
2023-05-04T09:54:03.296Z,90.60
2023-05-04T09:59:05.935Z,90.40
2023-05-04T10:04:08.014Z,88.00
2023-05-04T10:09:11.554Z,89.40
2023-05-04T10:14:13.630Z,88.50
2023-05-04T10:19:27.629Z,90.40
2023-05-04T10:24:40.750Z,87.60
2023-05-04T10:29:43.448Z,83.40
2023-05-04T10:34:45.362Z,87.20
2023-05-04T10:39:54.314Z,83.90
2023-05-04T10:44:56.901Z,87.70
2023-05-04T10:50:09.783Z,83.30
2023-05-04T10:55:11.672Z,85.30
2023-05-04T11:00:14.509Z,81.60
2023-05-04T11:05:19.575Z,83.50
2023-05-04T11:10:26.214Z,85.10
2023-05-04T11:15:28.002Z,82.00
2023-05-04T11:20:29.964Z,81.00
2023-05-04T11:25:33.333Z,80.00
2023-05-04T11:30:35.900Z,85.00
2023-05-04T11:35:37.972Z,80.00
2023-05-04T11:40:47.322Z,77.60
2023-05-04T11:45:49.330Z,76.30
2023-05-04T11:50:51.916Z,75.30
2023-05-04T11:55:54.467Z,73.70
2023-05-04T12:00:57.520Z,74.60
2023-05-04T12:06:01.693Z,70.60
2023-05-04T12:11:12.857Z,73.60
2023-05-04T12:16:16.921Z,75.40
2023-05-04T12:21:20.027Z,74.30
2023-05-04T12:26:21.761Z,73.10
2023-05-04T12:31:25.259Z,70.50
2023-05-04T12:36:27.238Z,68.60
2023-05-04T12:41:29.004Z,73.40
2023-05-04T12:46:30.921Z,70.40
2023-05-04T12:51:32.841Z,72.60
2023-05-04T12:56:34.919Z,71.30
2023-05-04T13:01:36.926Z,65.40
2023-05-04T13:06:38.895Z,66.30
2023-05-04T13:11:40.620Z,66.60
2023-05-04T13:16:42.440Z,67.60
2023-05-04T13:21:44.251Z,70.40
2023-05-04T13:26:46.082Z,70.80
2023-05-04T13:31:47.981Z,69.70
2023-05-04T13:36:49.784Z,68.00
2023-05-04T13:41:52.787Z,68.30
2023-05-04T13:46:54.598Z,67.10
2023-05-04T13:51:57.262Z,66.10
2023-05-04T13:56:59.103Z,70.40
2023-05-04T14:02:01.355Z,69.70
2023-05-04T14:07:03.212Z,67.70
2023-05-04T14:12:05.239Z,70.40
2023-05-04T14:17:07.924Z,68.90
2023-05-04T14:22:09.683Z,71.70
2023-05-04T14:27:11.723Z,70.50
2023-05-04T14:32:13.712Z,67.30
2023-05-04T14:37:15.768Z,73.40
2023-05-04T14:42:17.616Z,74.00
2023-05-04T14:47:19.930Z,73.90
2023-05-04T14:52:22.159Z,72.40
2023-05-04T14:57:23.985Z,73.00
2023-05-04T15:02:26.804Z,76.10
2023-05-04T15:07:28.762Z,74.80
2023-05-04T15:12:30.641Z,77.20
2023-05-04T15:17:32.985Z,76.80
2023-05-04T15:22:34.883Z,77.30
2023-05-04T15:27:36.701Z,75.70
2023-05-04T15:32:38.521Z,79.50
2023-05-04T15:37:40.582Z,80.70
2023-05-04T15:42:42.671Z,80.90
2023-05-04T15:47:46.416Z,82.50
2023-05-04T15:52:48.345Z,79.50
2023-05-04T15:57:50.092Z,82.00
2023-05-04T16:02:52.195Z,87.60
2023-05-04T16:07:54.473Z,90.50
2023-05-04T16:12:56.289Z,90.70
2023-05-04T16:17:58.204Z,90.80
2023-05-04T16:22:59.980Z,92.30
2023-05-04T16:28:01.869Z,92.80
2023-05-04T16:33:04.356Z,92.70
2023-05-04T16:38:06.174Z,93.70
2023-05-04T16:43:10.215Z,91.60
2023-05-04T16:48:11.980Z,92.20
2023-05-04T16:53:13.900Z,93.70
2023-05-04T16:58:15.807Z,97.30
2023-05-04T17:03:17.605Z,99.90
2023-05-04T17:08:19.526Z,99.90
2023-05-04T17:13:21.464Z,99.90
2023-05-04T17:18:23.299Z,99.90
2023-05-04T17:23:25.241Z,99.90
2023-05-04T17:28:27.078Z,99.90
2023-05-04T17:33:30.533Z,99.90
2023-05-04T17:38:32.562Z,99.90
2023-05-04T17:43:34.333Z,99.90
2023-05-04T17:48:36.783Z,99.90
2023-05-04T17:53:38.595Z,99.90
2023-05-04T17:58:40.466Z,99.90
2023-05-04T18:03:42.753Z,99.90
2023-05-04T18:08:44.961Z,99.90
2023-05-04T18:13:46.701Z,99.90
2023-05-04T18:18:48.474Z,99.90
2023-05-04T18:23:50.339Z,99.90
2023-05-04T18:28:52.265Z,99.90
2023-05-04T18:33:54.164Z,99.90
2023-05-04T18:38:58.706Z,99.90
2023-05-04T18:44:01.351Z,99.90
2023-05-04T18:49:04.196Z,99.90
2023-05-04T18:54:06.645Z,99.90
2023-05-04T18:59:09.573Z,99.90
2023-05-04T19:04:11.352Z,99.90
2023-05-04T19:09:14.481Z,99.90
2023-05-04T19:14:16.757Z,99.90
2023-05-04T19:19:18.560Z,99.90
2023-05-04T19:24:20.566Z,99.90
2023-05-04T19:29:22.775Z,99.90
2023-05-04T19:34:24.586Z,99.90
2023-05-04T19:39:26.309Z,99.90
2023-05-04T19:44:28.079Z,99.90
2023-05-04T19:49:29.897Z,99.90
2023-05-04T19:54:31.616Z,99.90
2023-05-04T19:59:33.858Z,99.90
2023-05-04T20:04:35.637Z,99.90
2023-05-04T20:09:37.476Z,99.90
2023-05-04T20:14:41.036Z,99.90
2023-05-04T20:19:43.185Z,99.90
2023-05-04T20:24:45.150Z,99.90
2023-05-04T20:29:46.927Z,99.90
2023-05-04T20:34:48.834Z,99.90
2023-05-04T20:39:53.421Z,99.90
2023-05-04T20:44:55.284Z,99.90
2023-05-04T20:49:57.360Z,99.90
2023-05-04T20:54:59.854Z,99.90
2023-05-04T21:00:01.936Z,99.90
2023-05-04T21:05:04.045Z,99.90
2023-05-04T21:10:06.884Z,99.90
2023-05-04T21:15:10.252Z,99.90
2023-05-04T21:20:12.287Z,99.90
2023-05-04T21:25:14.270Z,99.90
2023-05-04T21:30:16.226Z,99.90
2023-05-04T21:35:21.096Z,99.90
2023-05-04T21:40:25.330Z,99.90
2023-05-04T21:45:27.321Z,99.90
2023-05-04T21:50:29.346Z,99.90
2023-05-04T21:55:31.125Z,99.90
2023-05-04T22:00:33.150Z,99.90
2023-05-04T22:05:34.928Z,99.90
2023-05-04T22:10:36.880Z,99.90
2023-05-04T22:15:49.346Z,99.90
2023-05-04T22:20:52.280Z,99.90
2023-05-04T22:25:54.075Z,99.90
2023-05-04T22:30:55.976Z,99.90
2023-05-04T22:35:57.824Z,99.90
2023-05-04T22:40:59.588Z,99.90
2023-05-04T22:46:01.398Z,99.90
2023-05-04T22:51:03.926Z,99.90
2023-05-04T22:56:06.014Z,99.90
2023-05-04T23:01:11.662Z,99.90
2023-05-04T23:06:13.499Z,99.90
2023-05-04T23:11:20.459Z,99.90
2023-05-04T23:16:22.302Z,99.90
2023-05-04T23:21:24.171Z,99.90
2023-05-04T23:26:26.103Z,99.90
2023-05-04T23:31:28.709Z,99.90
2023-05-04T23:36:30.513Z,99.90
2023-05-04T23:41:32.380Z,99.90
2023-05-04T23:46:34.215Z,99.90
2023-05-04T23:51:35.975Z,99.90
2023-05-04T23:56:37.793Z,99.90
